St-Faustin-Lac-Carre, Canada
Current Conditions -  °F | °C
As of 10:00 PM on Saturday 20 Dec 2014 (Local Time) from CYMX Reporting Station
Haze Haze  
Wind Chill:   Ceiling: 100
Heat Index: 10°   Visibility: 0.75mi
Dew Point:   Wind: 6mph
Humidity: 92%   Direction: 40°NE
Pressure: 30.36"   Gusts: NA
Location:  46.11°N, 74.48°W
Report Text: CYMX 210300Z 04005KT 010V080 3/4SM R06/2600V4000FT/D BR VV001 M12/M13 A3036 RMK FG8 VIS VRB 1/2-1 SLP287
Loading
Personal Weather Stations






























Interactive Weather Map New forecast layout! Learn more

10-Day Weather Forecast

Advertisements
Track Severe Weather on mobile